createdAt,value
2022-10-23T00:01:14.330Z,101046.03
2022-10-23T00:03:43.634Z,101045.44
2022-10-23T00:06:12.036Z,101046.50
2022-10-23T00:08:40.231Z,101047.47
2022-10-23T00:11:09.103Z,101051.06
2022-10-23T00:13:37.016Z,101053.03
2022-10-23T00:16:05.174Z,101049.75
2022-10-23T00:18:33.076Z,101053.25
2022-10-23T00:21:02.436Z,101056.16
2022-10-23T00:23:30.414Z,101058.97
2022-10-23T00:25:58.261Z,101052.28
2022-10-23T00:28:26.104Z,101057.63
2022-10-23T00:30:53.995Z,101060.44
2022-10-23T00:33:21.847Z,101059.69
2022-10-23T00:35:49.723Z,101059.81
2022-10-23T00:38:19.003Z,101063.38
2022-10-23T00:40:47.217Z,101072.22
2022-10-23T00:43:19.775Z,101063.59
2022-10-23T00:45:48.160Z,101067.31
2022-10-23T00:48:16.695Z,101062.34
2022-10-23T00:50:44.830Z,101066.53
2022-10-23T00:53:14.108Z,101068.59
2022-10-23T00:55:46.828Z,101074.03
2022-10-23T00:58:15.070Z,101073.97
2022-10-23T01:00:47.127Z,101078.38
2022-10-23T01:03:16.833Z,101079.56
2022-10-23T01:05:51.649Z,101083.28
2022-10-23T01:08:29.435Z,101082.63
2022-10-23T01:11:05.210Z,101082.84
2022-10-23T01:13:40.605Z,101076.88
2022-10-23T01:16:15.370Z,101073.50
2022-10-23T01:18:46.855Z,101077.97
2022-10-23T01:21:19.880Z,101067.03
2022-10-23T01:24:19.570Z,101077.56
2022-10-23T01:27:05.137Z,101084.53
2022-10-23T01:29:39.330Z,101073.25
2022-10-23T01:32:14.962Z,101071.97
2022-10-23T01:34:48.745Z,101067.66
2022-10-23T01:37:22.295Z,101071.19
2022-10-23T01:39:54.273Z,101067.06
2022-10-23T01:42:28.513Z,101084.53
2022-10-23T01:45:02.343Z,101078.22
2022-10-23T01:47:35.301Z,101073.97
2022-10-23T01:50:06.579Z,101079.47
2022-10-23T01:52:34.945Z,101076.94
2022-10-23T01:55:03.266Z,101085.03
2022-10-23T01:57:33.728Z,101076.56
2022-10-23T02:00:06.658Z,101078.31
2022-10-23T02:02:37.331Z,101077.41
2022-10-23T02:05:09.419Z,101082.69
2022-10-23T02:07:37.877Z,101083.63
2022-10-23T02:10:07.729Z,101088.00
2022-10-23T02:12:47.476Z,101090.66
2022-10-23T02:15:25.578Z,101097.75
2022-10-23T02:18:04.558Z,101094.34
2022-10-23T02:20:40.632Z,101099.41
2022-10-23T02:23:21.479Z,101104.59
2022-10-23T02:25:56.020Z,101109.06
2022-10-23T02:28:27.722Z,101109.91
2022-10-23T02:31:00.729Z,101113.34
2022-10-23T02:33:29.859Z,101115.09
2022-10-23T02:35:58.310Z,101123.66
2022-10-23T02:38:35.125Z,101118.41
2022-10-23T02:41:15.075Z,101114.13
2022-10-23T02:43:53.079Z,101120.38
2022-10-23T02:46:30.412Z,101125.69
2022-10-23T02:49:09.653Z,101120.38
2022-10-23T02:51:49.226Z,101125.63
2022-10-23T02:54:27.000Z,101131.84
2022-10-23T02:57:02.953Z,101125.94
2022-10-23T02:59:38.271Z,101124.31
2022-10-23T03:02:12.539Z,101131.22
2022-10-23T03:04:43.944Z,101125.34
2022-10-23T03:07:12.986Z,101125.47
2022-10-23T03:09:43.879Z,101128.81
2022-10-23T03:12:11.827Z,101135.84
2022-10-23T03:14:42.071Z,101133.94
2022-10-23T03:17:13.628Z,101132.44
2022-10-23T03:19:43.199Z,101134.97
2022-10-23T03:22:11.046Z,101135.94
2022-10-23T03:24:38.892Z,101126.53
2022-10-23T03:27:06.724Z,101132.63
2022-10-23T03:29:35.797Z,101134.41
2022-10-23T03:32:03.639Z,101141.59
2022-10-23T03:34:32.921Z,101134.59
2022-10-23T03:37:00.753Z,101138.09
2022-10-23T03:39:28.790Z,101140.00
2022-10-23T03:41:56.655Z,101138.34
2022-10-23T03:44:24.554Z,101141.72
2022-10-23T03:46:52.423Z,101140.75
2022-10-23T03:49:20.490Z,101137.91
2022-10-23T03:51:52.181Z,101139.06
2022-10-23T03:54:22.495Z,101141.78
2022-10-23T03:56:53.627Z,101140.00
2022-10-23T03:59:24.659Z,101143.41
2022-10-23T04:01:52.962Z,101144.94
2022-10-23T04:04:21.034Z,101153.56
2022-10-23T04:06:50.259Z,101161.34
2022-10-23T04:09:18.422Z,101153.56
2022-10-23T04:11:46.259Z,101156.16
2022-10-23T04:14:14.924Z,101158.97
2022-10-23T04:16:42.792Z,101152.78
2022-10-23T04:19:10.962Z,101160.59
2022-10-23T04:21:38.941Z,101159.84
2022-10-23T04:24:08.714Z,101162.44
2022-10-23T04:26:36.641Z,101163.25
2022-10-23T04:29:04.527Z,101165.13
2022-10-23T04:31:32.392Z,101171.06
2022-10-23T04:34:00.342Z,101170.06
2022-10-23T04:36:28.231Z,101170.03
2022-10-23T04:38:56.115Z,101169.16
2022-10-23T04:41:25.564Z,101168.31
2022-10-23T04:43:53.435Z,101165.03
2022-10-23T04:46:21.287Z,101169.28
2022-10-23T04:48:49.144Z,101176.09
2022-10-23T04:51:17.090Z,101176.19
2022-10-23T04:53:44.954Z,101173.59
2022-10-23T04:56:14.821Z,101179.81
2022-10-23T04:58:44.231Z,101178.06
2022-10-23T05:01:12.515Z,101178.91
2022-10-23T05:03:40.513Z,101174.53
2022-10-23T05:06:08.580Z,101178.13
2022-10-23T05:08:36.974Z,101178.91
2022-10-23T05:11:05.216Z,101180.59
2022-10-23T05:13:33.317Z,101179.88
2022-10-23T05:16:02.580Z,101171.06
2022-10-23T05:18:35.417Z,101177.09
2022-10-23T05:21:07.814Z,101177.22
2022-10-23T05:23:38.055Z,101179.75
2022-10-23T05:26:06.027Z,101185.84
2022-10-23T05:28:33.885Z,101180.91
2022-10-23T05:31:06.179Z,101185.22
2022-10-23T05:33:34.474Z,101179.00
2022-10-23T05:36:03.147Z,101187.56
2022-10-23T05:38:34.144Z,101181.56
2022-10-23T05:41:02.106Z,101190.22
2022-10-23T05:43:31.293Z,101192.22
2022-10-23T05:46:00.008Z,101189.69
2022-10-23T05:48:34.842Z,101193.09
2022-10-23T05:51:06.855Z,101205.00
2022-10-23T05:53:40.130Z,101196.31
2022-10-23T05:56:10.957Z,101206.84
2022-10-23T05:58:38.822Z,101216.13
2022-10-23T06:01:08.128Z,101216.06
2022-10-23T06:03:38.635Z,101222.19
2022-10-23T06:06:07.720Z,101213.53
2022-10-23T06:08:35.916Z,101213.91
2022-10-23T06:11:08.378Z,101210.44
2022-10-23T06:13:36.845Z,101214.78
2022-10-23T06:16:11.673Z,101219.09
2022-10-23T06:18:40.921Z,101227.88
2022-10-23T06:21:12.068Z,101229.72
2022-10-23T06:23:41.059Z,101238.22
2022-10-23T06:26:12.460Z,101239.09
2022-10-23T06:28:40.554Z,101248.59
2022-10-23T06:31:09.312Z,101245.25
2022-10-23T06:33:37.676Z,101252.41
2022-10-23T06:36:10.412Z,101249.88
2022-10-23T06:38:40.425Z,101250.69
2022-10-23T06:41:13.652Z,101252.34
2022-10-23T06:43:41.536Z,101262.88
2022-10-23T06:46:10.058Z,101256.03
2022-10-23T06:48:37.967Z,101260.22
2022-10-23T06:51:09.724Z,101261.16
2022-10-23T06:53:38.252Z,101263.84
2022-10-23T06:56:08.410Z,101257.00
2022-10-23T06:58:36.922Z,101264.91
2022-10-23T07:01:07.481Z,101268.25
2022-10-23T07:03:35.793Z,101281.13
2022-10-23T07:06:04.505Z,101283.06
2022-10-23T07:08:33.943Z,101276.94
2022-10-23T07:11:05.003Z,101281.28
2022-10-23T07:13:34.155Z,101280.50
2022-10-23T07:16:11.450Z,101289.81
2022-10-23T07:18:39.311Z,101293.31
2022-10-23T07:21:07.271Z,101303.72
2022-10-23T07:23:36.579Z,101294.28
2022-10-23T07:26:07.056Z,101294.28
2022-10-23T07:28:34.942Z,101300.31
2022-10-23T07:31:05.413Z,101306.34
2022-10-23T07:33:33.267Z,101304.56
2022-10-23T07:36:01.151Z,101304.53
2022-10-23T07:38:29.002Z,101298.34
2022-10-23T07:40:59.846Z,101310.22
2022-10-23T07:43:28.210Z,101303.47
2022-10-23T07:45:56.413Z,101305.25
2022-10-23T07:48:27.705Z,101308.53
2022-10-23T07:51:01.000Z,101302.44
2022-10-23T07:53:29.413Z,101300.56
2022-10-23T07:56:01.238Z,101304.88
2022-10-23T07:58:30.076Z,101304.06
2022-10-23T08:01:02.730Z,101303.19
2022-10-23T08:03:32.982Z,101299.00
2022-10-23T08:06:00.859Z,101299.81
2022-10-23T08:08:28.826Z,101303.84
2022-10-23T08:10:57.825Z,101307.16
2022-10-23T08:13:29.895Z,101305.56
2022-10-23T08:15:58.807Z,101300.28
2022-10-23T08:18:26.797Z,101307.94
2022-10-23T08:20:54.779Z,101301.72
2022-10-23T08:23:22.636Z,101313.66
2022-10-23T08:25:50.478Z,101307.47
2022-10-23T08:28:18.335Z,101309.09
2022-10-23T08:30:47.575Z,101303.75
2022-10-23T08:33:15.431Z,101302.78
2022-10-23T08:35:43.289Z,101311.31
2022-10-23T08:38:11.953Z,101315.41
2022-10-23T08:40:44.615Z,101316.22
2022-10-23T08:43:17.215Z,101318.63
2022-10-23T08:45:50.192Z,101315.25
2022-10-23T08:48:24.107Z,101320.19
2022-10-23T08:50:57.204Z,101318.28
2022-10-23T08:53:31.293Z,101329.47
2022-10-23T08:56:03.800Z,101326.75
2022-10-23T08:58:38.540Z,101330.97
2022-10-23T09:01:37.240Z,101332.47
2022-10-23T09:04:06.461Z,101325.44
2022-10-23T09:06:40.120Z,101327.88
2022-10-23T09:09:29.962Z,101333.72
2022-10-23T09:12:04.612Z,101332.72
2022-10-23T09:15:01.838Z,101324.69
2022-10-23T09:17:32.631Z,101333.13
2022-10-23T09:20:15.510Z,101341.59
2022-10-23T09:22:43.596Z,101336.28
2022-10-23T09:25:12.709Z,101330.97
2022-10-23T09:27:48.639Z,101334.25
2022-10-23T09:30:31.990Z,101328.84
2022-10-23T09:33:01.752Z,101339.06
2022-10-23T09:35:31.267Z,101336.22
2022-10-23T09:37:59.316Z,101345.59
2022-10-23T09:40:33.442Z,101355.84
2022-10-23T09:43:03.850Z,101356.50
2022-10-23T09:45:34.475Z,101349.38
2022-10-23T09:48:13.327Z,101350.06
2022-10-23T09:50:50.045Z,101354.13
2022-10-23T09:53:23.665Z,101347.97
2022-10-23T09:55:56.468Z,101350.38
2022-10-23T09:58:31.830Z,101354.47
2022-10-23T10:00:59.824Z,101356.75
2022-10-23T10:03:29.137Z,101354.94
2022-10-23T10:06:00.080Z,101353.09
2022-10-23T10:08:36.378Z,101346.06
2022-10-23T10:11:11.579Z,101342.50
2022-10-23T10:13:59.929Z,101355.19
2022-10-23T10:19:18.765Z,101353.03
2022-10-23T10:21:53.728Z,101361.47
2022-10-23T10:24:27.035Z,101356.97
2022-10-23T10:27:04.347Z,101357.63
2022-10-23T10:29:51.298Z,101363.34
2022-10-23T10:32:33.047Z,101366.22
2022-10-23T10:35:18.003Z,101367.59
2022-10-23T10:38:06.140Z,101367.75
2022-10-23T10:40:37.275Z,101364.22
2022-10-23T10:43:29.861Z,101365.00
2022-10-23T10:46:08.108Z,101364.75
2022-10-23T10:48:46.669Z,101369.25
2022-10-23T10:51:25.251Z,101363.84
2022-10-23T10:54:09.787Z,101362.44
2022-10-23T10:56:42.835Z,101364.81
2022-10-23T10:59:16.856Z,101364.75
2022-10-23T11:01:52.683Z,101362.28
2022-10-23T11:04:33.230Z,101355.09
2022-10-23T11:07:08.192Z,101359.66
2022-10-23T11:09:36.271Z,101366.50
2022-10-23T11:12:04.406Z,101349.03
2022-10-23T11:14:35.303Z,101358.69
2022-10-23T11:17:09.271Z,101362.44
2022-10-23T11:19:42.712Z,101365.50
2022-10-23T11:22:23.174Z,101360.22
2022-10-23T11:25:06.985Z,101361.22
2022-10-23T11:27:54.534Z,101358.25
2022-10-23T11:30:30.192Z,101346.31
2022-10-23T11:33:31.425Z,101352.38
2022-10-23T11:36:07.174Z,101355.81
2022-10-23T11:38:39.359Z,101356.41
2022-10-23T11:41:21.056Z,101357.19
2022-10-23T11:43:55.404Z,101357.19
2022-10-23T11:46:35.307Z,101366.47
2022-10-23T11:49:06.229Z,101360.94
2022-10-23T11:51:38.832Z,101370.34
2022-10-23T11:54:24.681Z,101367.00
2022-10-23T11:56:56.485Z,101375.41
2022-10-23T11:59:29.063Z,101376.59
2022-10-23T12:01:59.480Z,101378.50
2022-10-23T12:04:32.039Z,101369.97
2022-10-23T12:07:04.833Z,101363.09
2022-10-23T12:09:41.515Z,101357.25
2022-10-23T12:12:18.095Z,101366.06
2022-10-23T12:14:47.599Z,101370.22
2022-10-23T12:17:32.462Z,101381.03
2022-10-23T12:20:19.302Z,101383.47
2022-10-23T12:22:59.840Z,101384.31
2022-10-23T12:25:38.790Z,101382.63
2022-10-23T12:28:13.800Z,101386.84
2022-10-23T12:30:45.676Z,101381.50
2022-10-23T12:35:48.835Z,101381.34
2022-10-23T12:38:19.447Z,101380.94
2022-10-23T12:40:51.801Z,101376.31
2022-10-23T12:43:27.215Z,101381.91
2022-10-23T12:45:57.378Z,101381.59
2022-10-23T12:48:26.213Z,101386.91
2022-10-23T12:50:57.307Z,101386.81
2022-10-23T12:53:25.334Z,101393.63
2022-10-23T12:58:33.941Z,101391.88
2022-10-23T13:01:04.479Z,101391.38
2022-10-23T13:03:35.330Z,101387.22
2022-10-23T13:06:05.478Z,101382.84
2022-10-23T13:08:35.731Z,101390.06
2022-10-23T13:11:04.403Z,101381.34
2022-10-23T13:13:32.606Z,101384.84
2022-10-23T13:16:00.478Z,101383.09
2022-10-23T13:18:28.317Z,101376.28
2022-10-23T13:20:59.613Z,101373.81
2022-10-23T13:23:32.373Z,101385.63
2022-10-23T13:26:02.036Z,101379.47
2022-10-23T13:28:33.217Z,101377.19
2022-10-23T13:31:24.128Z,101376.13
2022-10-23T13:34:04.787Z,101373.44
2022-10-23T13:36:36.548Z,101381.25
2022-10-23T13:39:14.833Z,101380.63
2022-10-23T13:41:45.011Z,101387.75
2022-10-23T13:44:14.509Z,101390.44
2022-10-23T13:46:42.690Z,101388.84
2022-10-23T13:49:10.824Z,101386.22
2022-10-23T13:51:43.405Z,101384.56
2022-10-23T13:54:16.669Z,101381.09
2022-10-23T13:56:44.579Z,101380.16
2022-10-23T13:59:13.343Z,101386.53
2022-10-23T14:01:41.939Z,101380.69
2022-10-23T14:04:11.275Z,101380.84
2022-10-23T14:06:39.932Z,101375.88
2022-10-23T14:09:09.341Z,101369.13
2022-10-23T14:11:38.613Z,101373.41
2022-10-23T14:14:06.660Z,101371.81
2022-10-23T14:16:34.664Z,101378.88
2022-10-23T14:19:02.533Z,101371.91
2022-10-23T14:21:30.396Z,101368.47
2022-10-23T14:23:58.750Z,101365.94
2022-10-23T14:26:30.348Z,101371.38
2022-10-23T14:29:02.917Z,101366.31
2022-10-23T14:31:35.590Z,101377.72
2022-10-23T14:34:03.504Z,101374.44
2022-10-23T14:36:38.790Z,101379.78
2022-10-23T14:39:17.880Z,101377.56
2022-10-23T14:41:45.827Z,101381.06
2022-10-23T14:44:15.172Z,101387.19
2022-10-23T14:46:43.007Z,101376.91
2022-10-23T14:49:10.887Z,101378.66
2022-10-23T14:51:38.892Z,101390.94
2022-10-23T14:54:08.109Z,101378.06
2022-10-23T14:56:38.288Z,101388.56
2022-10-23T14:59:10.833Z,101386.78
2022-10-23T15:01:45.097Z,101394.50
2022-10-23T15:04:16.294Z,101391.09
2022-10-23T15:06:46.760Z,101385.03
2022-10-23T15:09:14.871Z,101388.63
2022-10-23T15:11:42.987Z,101389.66
2022-10-23T15:14:10.868Z,101387.06
2022-10-23T15:16:42.240Z,101385.38
2022-10-23T15:19:15.142Z,101386.31
2022-10-23T15:21:46.263Z,101397.56
2022-10-23T15:24:14.100Z,101393.19
2022-10-23T15:26:43.231Z,101395.94
2022-10-23T15:29:12.309Z,101399.34
2022-10-23T15:31:47.090Z,101396.72
2022-10-23T15:34:17.384Z,101391.53
2022-10-23T15:36:47.013Z,101390.94
2022-10-23T15:39:17.096Z,101384.78
2022-10-23T15:41:45.745Z,101382.19
2022-10-23T15:44:16.888Z,101393.41
2022-10-23T15:46:46.127Z,101399.63
2022-10-23T15:49:14.292Z,101399.69
2022-10-23T15:51:43.061Z,101404.97
2022-10-23T15:54:16.500Z,101406.84
2022-10-23T15:56:44.528Z,101409.38
2022-10-23T15:59:12.606Z,101407.72
2022-10-23T16:01:40.599Z,101408.63
2022-10-23T16:04:10.097Z,101409.59
2022-10-23T16:06:38.198Z,101413.19
2022-10-23T16:09:06.162Z,101415.88
2022-10-23T16:11:36.247Z,101415.88
2022-10-23T16:14:04.366Z,101428.97
2022-10-23T16:16:33.772Z,101435.00
2022-10-23T16:19:02.176Z,101431.63
2022-10-23T16:21:33.788Z,101435.97
2022-10-23T16:24:03.209Z,101437.75
2022-10-23T16:26:32.085Z,101428.16
2022-10-23T16:29:01.870Z,101427.34
2022-10-23T16:31:30.239Z,101434.44
2022-10-23T16:34:00.282Z,101434.38
2022-10-23T16:36:28.457Z,101437.81
2022-10-23T16:38:57.957Z,101432.63
2022-10-23T16:41:25.840Z,101435.28
2022-10-23T16:43:53.695Z,101437.81
2022-10-23T16:46:23.067Z,101435.28
2022-10-23T16:48:53.023Z,101438.19
2022-10-23T16:51:23.158Z,101436.53
2022-10-23T16:53:51.364Z,101439.19
2022-10-23T16:56:22.539Z,101439.13
2022-10-23T16:58:50.550Z,101436.53
2022-10-23T17:01:21.395Z,101442.59
2022-10-23T17:03:51.085Z,101451.31
2022-10-23T17:06:21.500Z,101448.72
2022-10-23T17:08:49.256Z,101446.31
2022-10-23T17:11:18.893Z,101448.78
2022-10-23T17:13:53.633Z,101443.44
2022-10-23T17:16:27.884Z,101455.53
2022-10-23T17:18:57.588Z,101453.91
2022-10-23T17:21:25.834Z,101448.66
2022-10-23T17:23:53.935Z,101453.84
2022-10-23T17:26:23.623Z,101451.25
2022-10-23T17:28:53.098Z,101454.69
2022-10-23T17:31:23.300Z,101465.00
2022-10-23T17:33:53.458Z,101460.59
2022-10-23T17:36:22.469Z,101464.06
2022-10-23T17:38:50.691Z,101468.25
2022-10-23T17:41:21.443Z,101475.28
2022-10-23T17:43:49.906Z,101465.81
2022-10-23T17:46:19.936Z,101480.56
2022-10-23T17:48:47.780Z,101479.00
2022-10-23T17:51:19.522Z,101481.63
2022-10-23T17:53:49.597Z,101485.81
2022-10-23T17:56:20.072Z,101483.22
2022-10-23T17:58:48.163Z,101490.22
2022-10-23T18:01:18.715Z,101481.56
2022-10-23T18:03:48.150Z,101483.09
2022-10-23T18:06:18.446Z,101491.75
2022-10-23T18:08:46.805Z,101484.16
2022-10-23T18:11:16.761Z,101481.41
2022-10-23T18:13:44.936Z,101491.75
2022-10-23T18:16:13.416Z,101493.44
2022-10-23T18:18:42.497Z,101503.78
2022-10-23T18:21:12.051Z,101505.56
2022-10-23T18:23:39.907Z,101501.16
2022-10-23T18:26:15.958Z,101509.75
2022-10-23T18:28:44.955Z,101519.38
2022-10-23T18:31:13.897Z,101524.59
2022-10-23T18:33:42.517Z,101526.31
2022-10-23T18:36:17.028Z,101524.66
2022-10-23T18:38:45.027Z,101517.84
2022-10-23T18:41:13.035Z,101518.75
2022-10-23T18:43:44.204Z,101514.50
2022-10-23T18:46:13.251Z,101528.25
2022-10-23T18:48:41.260Z,101530.84
2022-10-23T18:51:16.181Z,101530.84
2022-10-23T18:53:46.735Z,101530.84
2022-10-23T18:56:15.747Z,101524.78
2022-10-23T18:58:46.713Z,101532.59
2022-10-23T19:01:14.627Z,101539.44
2022-10-23T19:03:42.655Z,101539.44
2022-10-23T19:06:10.977Z,101540.47
2022-10-23T19:08:45.144Z,101545.59
2022-10-23T19:11:14.066Z,101537.78
2022-10-23T19:13:43.134Z,101540.34
2022-10-23T19:16:15.872Z,101542.03
2022-10-23T19:18:48.158Z,101532.66
2022-10-23T19:21:17.666Z,101530.00
2022-10-23T19:23:47.830Z,101537.09
2022-10-23T19:26:16.474Z,101527.53
2022-10-23T19:28:48.446Z,101539.66
2022-10-23T19:31:16.744Z,101543.94
2022-10-23T19:33:44.730Z,101555.94
2022-10-23T19:36:14.274Z,101553.22
2022-10-23T19:38:43.160Z,101553.22
2022-10-23T19:41:12.479Z,101559.19
2022-10-23T19:43:40.316Z,101566.22
2022-10-23T19:46:11.244Z,101560.94
2022-10-23T19:48:42.591Z,101558.22
2022-10-23T19:51:10.530Z,101563.50
2022-10-23T19:53:38.434Z,101565.25
2022-10-23T19:56:08.620Z,101571.28
2022-10-23T19:58:38.324Z,101560.06
2022-10-23T20:01:11.080Z,101563.50
2022-10-23T20:03:39.841Z,101562.66
2022-10-23T20:06:10.592Z,101565.34
2022-10-23T20:08:38.490Z,101562.72
2022-10-23T20:11:07.098Z,101559.19
2022-10-23T20:13:35.580Z,101564.53
2022-10-23T20:16:05.014Z,101572.28
2022-10-23T20:18:32.899Z,101572.34
2022-10-23T20:21:02.597Z,101573.97
2022-10-23T20:23:30.652Z,101569.63
2022-10-23T20:26:05.292Z,101564.47
2022-10-23T20:28:33.295Z,101570.53
2022-10-23T20:31:03.239Z,101573.28
2022-10-23T20:33:32.707Z,101574.16
2022-10-23T20:36:00.624Z,101571.63
2022-10-23T20:38:28.462Z,101575.09
2022-10-23T20:40:57.497Z,101574.28
2022-10-23T20:43:25.517Z,101576.13
2022-10-23T20:45:53.511Z,101576.06
2022-10-23T20:48:21.355Z,101587.22
2022-10-23T20:50:50.924Z,101580.22
2022-10-23T20:53:18.759Z,101580.28
2022-10-23T20:55:46.607Z,101588.03
2022-10-23T20:58:14.485Z,101584.56
2022-10-23T21:00:42.355Z,101588.09
2022-10-23T21:03:10.262Z,101588.09
2022-10-23T21:05:38.184Z,101582.03
2022-10-23T21:08:07.983Z,101582.88
2022-10-23T21:10:35.899Z,101582.88
2022-10-23T21:13:06.707Z,101582.88
2022-10-23T21:15:34.536Z,101581.13
2022-10-23T21:18:19.183Z,101582.09
2022-10-23T21:20:55.746Z,101580.34
2022-10-23T21:23:24.978Z,101588.16
2022-10-23T21:25:53.109Z,101592.50
2022-10-23T21:28:20.988Z,101595.91
2022-10-23T21:30:48.814Z,101596.03
2022-10-23T21:33:16.891Z,101597.78
2022-10-23T21:35:57.814Z,101603.84
2022-10-23T21:38:28.115Z,101597.84
2022-10-23T21:40:56.166Z,101592.69
2022-10-23T21:43:24.012Z,101597.00
2022-10-23T21:45:54.327Z,101594.34
2022-10-23T21:48:23.399Z,101592.56
2022-10-23T21:50:57.477Z,101597.78
2022-10-23T21:53:25.468Z,101590.81
2022-10-23T21:55:56.068Z,101604.75
2022-10-23T21:58:23.974Z,101603.03
2022-10-23T22:00:51.842Z,101599.56
2022-10-23T22:03:19.786Z,101608.19
2022-10-23T22:05:47.859Z,101605.66
2022-10-23T22:08:15.672Z,101610.91
2022-10-23T22:10:43.595Z,101601.38
2022-10-23T22:13:15.676Z,101595.22
2022-10-23T22:18:16.283Z,101592.63
2022-10-23T22:20:44.189Z,101591.09
2022-10-23T22:23:12.030Z,101591.94
2022-10-23T22:25:39.946Z,101598.09
2022-10-23T22:28:07.851Z,101602.41
2022-10-23T22:30:38.594Z,101602.41
2022-10-23T22:33:06.486Z,101599.75
2022-10-23T22:35:34.539Z,101610.09
2022-10-23T22:38:02.427Z,101608.44
2022-10-23T22:40:30.375Z,101609.22
2022-10-23T22:42:58.278Z,101603.16
2022-10-23T22:45:26.136Z,101607.56
2022-10-23T22:47:55.358Z,101603.09
2022-10-23T22:50:23.267Z,101603.16
2022-10-23T22:52:51.480Z,101607.56
2022-10-23T22:55:22.069Z,101608.38
2022-10-23T22:57:49.929Z,101606.56
2022-10-23T23:00:18.730Z,101604.88
2022-10-23T23:02:46.634Z,101610.84
2022-10-23T23:05:16.146Z,101609.97
2022-10-23T23:07:44.142Z,101608.19
2022-10-23T23:10:12.276Z,101608.19
2022-10-23T23:12:40.115Z,101616.84
2022-10-23T23:15:09.078Z,101603.84
2022-10-23T23:17:36.934Z,101597.78
2022-10-23T23:20:05.270Z,101602.09
2022-10-23T23:22:34.475Z,101601.22
2022-10-23T23:25:02.349Z,101601.28
2022-10-23T23:27:33.025Z,101606.50
2022-10-23T23:30:01.067Z,101602.09
2022-10-23T23:32:29.055Z,101600.31
2022-10-23T23:35:00.048Z,101609.03
2022-10-23T23:37:30.740Z,101606.56
2022-10-23T23:40:00.023Z,101606.56
2022-10-23T23:42:28.247Z,101610.09
2022-10-23T23:45:02.706Z,101604.88
2022-10-23T23:47:38.022Z,101605.72
2022-10-23T23:50:07.884Z,101610.97
2022-10-23T23:52:36.173Z,101611.03
2022-10-23T23:55:06.230Z,101613.63
2022-10-23T23:57:34.192Z,101612.81
